createdAt,value
2022-09-21T00:01:35.044Z,14.19
2022-09-21T00:04:04.629Z,13.95
2022-09-21T00:06:35.481Z,13.86
2022-09-21T00:09:05.494Z,13.80
2022-09-21T00:11:34.430Z,13.81
2022-09-21T00:14:07.655Z,13.69
2022-09-21T00:16:36.522Z,13.60
2022-09-21T00:19:06.765Z,13.98
2022-09-21T00:21:36.452Z,13.85
2022-09-21T00:24:06.191Z,13.64
2022-09-21T00:26:35.167Z,13.80
2022-09-21T00:29:04.630Z,13.57
2022-09-21T00:31:33.194Z,13.54
2022-09-21T00:34:01.184Z,13.60
2022-09-21T00:36:28.843Z,13.49
2022-09-21T00:38:59.360Z,13.43
2022-09-21T00:41:28.883Z,13.33
2022-09-21T00:44:19.045Z,13.32
2022-09-21T00:46:49.706Z,13.28
2022-09-21T00:49:18.343Z,13.33
2022-09-21T00:51:47.520Z,13.27
2022-09-21T00:54:22.956Z,13.34
2022-09-21T00:56:51.198Z,13.46
2022-09-21T00:59:21.993Z,13.38
2022-09-21T01:16:44.815Z,12.53
2022-09-21T01:19:57.503Z,12.46
2022-09-21T01:22:37.614Z,12.60
2022-09-21T01:25:26.731Z,12.57
2022-09-21T01:28:04.096Z,12.77
2022-09-21T01:30:35.565Z,12.76
2022-09-21T01:33:18.074Z,12.85
2022-09-21T01:35:50.666Z,12.65
2022-09-21T01:38:25.585Z,12.67
2022-09-21T01:41:00.822Z,12.57
2022-09-21T01:43:37.821Z,12.45
2022-09-21T01:46:13.792Z,12.49
2022-09-21T01:48:46.817Z,12.32
2022-09-21T01:51:18.200Z,12.50
2022-09-21T01:53:55.203Z,12.40
2022-09-21T01:56:28.381Z,12.43
2022-09-21T01:59:14.347Z,12.63
2022-09-21T02:01:49.531Z,12.65
2022-09-21T02:04:18.989Z,12.37
2022-09-21T02:06:49.582Z,12.60
2022-09-21T02:09:20.702Z,12.49
2022-09-21T02:11:48.934Z,12.45
2022-09-21T02:14:21.070Z,12.06
2022-09-21T02:17:15.254Z,12.31
2022-09-21T02:19:58.110Z,12.30
2022-09-21T02:22:46.666Z,12.15
2022-09-21T02:25:21.938Z,12.43
2022-09-21T02:27:57.473Z,12.40
2022-09-21T02:30:27.005Z,12.43
2022-09-21T02:33:03.550Z,12.39
2022-09-21T02:35:40.168Z,12.03
2022-09-21T02:38:35.305Z,11.99
2022-09-21T02:41:06.831Z,12.28
2022-09-21T02:43:40.060Z,12.12
2022-09-21T02:46:15.761Z,12.18
2022-09-21T02:48:51.780Z,12.11
2022-09-21T02:51:29.920Z,12.13
2022-09-21T02:54:01.537Z,12.00
2022-09-21T02:56:31.807Z,12.05
2022-09-21T02:59:04.923Z,11.86
2022-09-21T03:01:34.712Z,12.02
2022-09-21T03:04:02.841Z,12.06
2022-09-21T03:06:31.373Z,11.87
2022-09-21T03:08:59.868Z,11.66
2022-09-21T03:11:28.016Z,11.52
2022-09-21T03:13:56.893Z,11.86
2022-09-21T03:16:26.556Z,11.69
2022-09-21T03:18:55.193Z,11.81
2022-09-21T03:21:23.269Z,11.82
2022-09-21T03:23:51.323Z,11.55
2022-09-21T03:26:22.684Z,11.69
2022-09-21T03:28:52.454Z,11.91
2022-09-21T03:31:20.454Z,11.62
2022-09-21T03:33:48.252Z,11.94
2022-09-21T03:36:16.179Z,11.70
2022-09-21T03:38:44.996Z,12.08
2022-09-21T03:41:14.307Z,11.82
2022-09-21T03:43:41.983Z,11.78
2022-09-21T03:46:10.436Z,11.85
2022-09-21T03:48:39.399Z,11.72
2022-09-21T03:51:07.417Z,11.82
2022-09-21T03:53:34.978Z,11.73
2022-09-21T03:56:07.840Z,12.00
2022-09-21T03:58:35.699Z,12.16
2022-09-21T04:01:04.432Z,12.09
2022-09-21T04:03:32.264Z,11.85
2022-09-21T04:06:01.020Z,12.08
2022-09-21T04:08:31.401Z,11.99
2022-09-21T04:11:01.540Z,11.80
2022-09-21T04:13:30.983Z,11.70
2022-09-21T04:16:04.792Z,12.04
2022-09-21T04:18:33.831Z,12.10
2022-09-21T04:21:03.002Z,11.90
2022-09-21T04:23:30.727Z,12.02
2022-09-21T04:25:58.852Z,12.20
2022-09-21T04:28:27.773Z,12.13
2022-09-21T04:30:56.591Z,12.06
2022-09-21T04:33:27.178Z,12.05
2022-09-21T04:36:05.326Z,12.41
2022-09-21T04:38:34.425Z,12.27
2022-09-21T04:41:04.156Z,12.28
2022-09-21T04:43:32.976Z,12.39
2022-09-21T04:46:08.202Z,12.44
2022-09-21T04:48:39.230Z,12.35
2022-09-21T04:53:55.231Z,12.30
2022-09-21T04:56:25.156Z,12.10
2022-09-21T04:58:54.660Z,12.21
2022-09-21T05:01:23.785Z,12.32
2022-09-21T05:03:53.275Z,12.27
2022-09-21T05:06:21.123Z,12.25
2022-09-21T05:09:13.611Z,12.43
2022-09-21T05:11:41.878Z,12.50
2022-09-21T05:14:10.529Z,12.38
2022-09-21T05:16:39.101Z,12.34
2022-09-21T05:19:07.237Z,12.37
2022-09-21T05:21:36.631Z,12.40
2022-09-21T05:26:47.764Z,12.40
2022-09-21T05:29:16.292Z,12.53
2022-09-21T05:31:52.125Z,12.62
2022-09-21T05:34:36.163Z,12.60
2022-09-21T05:37:21.564Z,12.76
2022-09-21T05:39:49.728Z,13.14
2022-09-21T05:42:22.311Z,13.18
2022-09-21T05:45:04.879Z,13.34
2022-09-21T05:47:54.807Z,13.20
2022-09-21T05:50:40.450Z,13.29
2022-09-21T05:53:26.749Z,13.46
2022-09-21T05:55:57.334Z,13.50
2022-09-21T05:59:10.235Z,13.46
2022-09-21T06:02:18.976Z,13.36
2022-09-21T06:04:48.172Z,13.49
2022-09-21T06:07:18.046Z,13.51
2022-09-21T06:09:47.486Z,13.64
2022-09-21T06:12:17.045Z,13.56
2022-09-21T06:14:46.899Z,13.59
2022-09-21T06:17:15.442Z,13.40
2022-09-21T06:19:45.168Z,13.50
2022-09-21T06:22:15.972Z,13.16
2022-09-21T06:24:48.345Z,13.29
2022-09-21T06:27:18.025Z,13.28
2022-09-21T06:29:49.011Z,13.35
2022-09-21T06:32:20.737Z,13.59
2022-09-21T06:34:50.545Z,13.68
2022-09-21T06:37:19.490Z,13.72
2022-09-21T06:39:50.836Z,13.81
2022-09-21T06:42:18.838Z,13.80
2022-09-21T06:44:46.878Z,13.94
2022-09-21T06:47:14.789Z,14.08
2022-09-21T06:49:44.395Z,14.05
2022-09-21T06:52:14.980Z,14.19
2022-09-21T06:54:43.586Z,14.44
2022-09-21T06:57:11.750Z,14.55
2022-09-21T06:59:44.449Z,14.28
2022-09-21T07:02:24.240Z,14.36
2022-09-21T07:04:52.742Z,14.35
2022-09-21T07:07:24.096Z,14.41
2022-09-21T07:10:12.127Z,14.54
2022-09-21T07:21:22.750Z,14.33
2022-09-21T07:23:51.126Z,14.06
2022-09-21T07:26:20.374Z,14.20
2022-09-21T07:28:48.307Z,14.15
2022-09-21T07:31:17.780Z,14.55
2022-09-21T07:33:49.101Z,14.81
2022-09-21T07:36:18.582Z,15.01
2022-09-21T07:38:47.524Z,15.35
2022-09-21T07:41:15.965Z,15.65
2022-09-21T07:43:44.377Z,15.90
2022-09-21T07:46:14.844Z,15.99
2022-09-21T07:48:47.239Z,15.57
2022-09-21T07:51:16.036Z,15.60
2022-09-21T07:53:45.326Z,15.63
2022-09-21T07:56:22.622Z,15.67
2022-09-21T07:59:07.808Z,15.78
2022-09-21T08:01:40.256Z,15.78
2022-09-21T08:04:11.102Z,15.66
2022-09-21T08:06:40.538Z,15.58
2022-09-21T08:09:09.277Z,15.45
2022-09-21T08:11:37.978Z,15.61
2022-09-21T08:14:05.729Z,15.81
2022-09-21T08:16:35.866Z,16.03
2022-09-21T08:19:07.793Z,15.95
2022-09-21T08:21:35.928Z,16.01
2022-09-21T08:24:04.132Z,16.22
2022-09-21T08:26:33.745Z,16.11
2022-09-21T08:29:01.722Z,16.41
2022-09-21T08:31:30.758Z,16.31
2022-09-21T08:34:01.018Z,16.43
2022-09-21T08:36:29.373Z,16.61
2022-09-21T08:38:57.461Z,16.67
2022-09-21T08:42:00.853Z,16.56
2022-09-21T08:44:52.110Z,16.40
2022-09-21T08:47:34.094Z,16.43
2022-09-21T08:50:04.361Z,16.45
2022-09-21T08:52:33.801Z,16.61
2022-09-21T08:55:17.698Z,16.46
2022-09-21T08:57:47.015Z,16.76
2022-09-21T09:00:18.066Z,16.64
2022-09-21T09:03:06.013Z,16.99
2022-09-21T09:06:03.316Z,17.08
2022-09-21T09:09:12.039Z,17.26
2022-09-21T09:12:11.345Z,17.48
2022-09-21T09:14:55.701Z,17.85
2022-09-21T09:17:32.328Z,17.90
2022-09-21T09:20:07.816Z,18.16
2022-09-21T09:22:43.538Z,17.94
2022-09-21T09:25:27.341Z,17.42
2022-09-21T09:28:01.406Z,17.48
2022-09-21T09:30:35.226Z,17.53
2022-09-21T09:33:12.120Z,17.70
2022-09-21T09:35:52.123Z,17.66
2022-09-21T09:38:42.864Z,18.19
2022-09-21T09:41:25.605Z,18.08
2022-09-21T09:44:14.837Z,18.27
2022-09-21T09:46:54.513Z,18.34
2022-09-21T09:49:34.714Z,18.85
2022-09-21T09:52:05.017Z,19.04
2022-09-21T09:54:36.057Z,17.88
2022-09-21T09:57:06.620Z,17.90
2022-09-21T09:59:39.402Z,17.80
2022-09-21T10:02:26.717Z,17.69
2022-09-21T10:05:04.321Z,18.05
2022-09-21T10:07:48.055Z,18.21
2022-09-21T10:10:33.501Z,18.14
2022-09-21T10:13:16.840Z,17.52
2022-09-21T10:15:50.682Z,17.56
2022-09-21T10:21:24.150Z,17.66
2022-09-21T10:24:04.778Z,17.29
2022-09-21T10:26:36.651Z,17.18
2022-09-21T10:29:31.742Z,17.13
2022-09-21T10:32:04.932Z,17.29
2022-09-21T10:34:35.877Z,17.35
2022-09-21T10:37:26.357Z,17.50
2022-09-21T10:40:00.409Z,17.57
2022-09-21T10:42:45.730Z,17.47
2022-09-21T10:45:24.918Z,17.59
2022-09-21T10:48:07.669Z,17.55
2022-09-21T10:50:56.699Z,17.79
2022-09-21T10:53:32.231Z,17.86
2022-09-21T10:56:26.442Z,17.73
2022-09-21T10:59:24.315Z,17.98
2022-09-21T11:02:01.862Z,17.91
2022-09-21T11:04:45.995Z,17.96
2022-09-21T11:07:59.704Z,17.98
2022-09-21T11:10:53.421Z,17.91
2022-09-21T11:13:39.890Z,17.77
2022-09-21T11:16:38.559Z,17.61
2022-09-21T11:19:39.112Z,17.49
2022-09-21T11:22:45.811Z,17.58
2022-09-21T11:25:38.009Z,17.65
2022-09-21T11:28:25.784Z,17.82
2022-09-21T11:31:28.089Z,18.24
2022-09-21T11:34:09.895Z,18.48
2022-09-21T11:36:57.507Z,18.51
2022-09-21T11:39:47.208Z,18.93
2022-09-21T11:42:28.389Z,19.13
2022-09-21T11:45:01.337Z,18.99
2022-09-21T11:48:20.144Z,18.64
2022-09-21T11:51:16.222Z,18.74
2022-09-21T11:54:54.260Z,18.88
2022-09-21T11:57:34.925Z,19.43
2022-09-21T12:00:16.038Z,19.19
2022-09-21T12:03:12.583Z,19.08
2022-09-21T12:05:57.323Z,19.09
2022-09-21T12:08:30.433Z,18.93
2022-09-21T12:11:24.597Z,18.54
2022-09-21T12:14:05.545Z,18.16
2022-09-21T12:16:43.505Z,18.35
2022-09-21T12:19:37.662Z,18.43
2022-09-21T12:22:23.896Z,18.58
2022-09-21T12:24:58.516Z,18.50
2022-09-21T12:27:44.425Z,18.58
2022-09-21T12:30:17.322Z,18.69
2022-09-21T12:36:05.178Z,19.10
2022-09-21T12:38:45.743Z,18.72
2022-09-21T12:41:25.019Z,18.58
2022-09-21T12:44:02.098Z,18.89
2022-09-21T12:46:52.212Z,19.79
2022-09-21T12:49:35.558Z,20.20
2022-09-21T12:52:07.037Z,20.68
2022-09-21T12:54:54.460Z,21.28
2022-09-21T12:58:13.954Z,21.93
2022-09-21T13:00:47.658Z,22.11
2022-09-21T13:03:35.009Z,23.09
2022-09-21T13:06:36.090Z,23.04
2022-09-21T13:09:09.932Z,21.29
2022-09-21T13:11:55.158Z,20.79
2022-09-21T13:14:28.400Z,20.79
2022-09-21T13:17:01.394Z,21.13
2022-09-21T13:19:33.409Z,21.67
2022-09-21T13:22:20.137Z,22.59
2022-09-21T13:25:02.145Z,22.99
2022-09-21T13:31:23.629Z,23.63
2022-09-21T13:34:16.030Z,23.06
2022-09-21T13:36:46.715Z,23.43
2022-09-21T13:39:22.533Z,23.25
2022-09-21T13:42:02.744Z,23.52
2022-09-21T13:44:42.871Z,23.74
2022-09-21T13:47:13.321Z,23.00
2022-09-21T13:49:54.935Z,22.34
2022-09-21T13:52:32.419Z,22.90
2022-09-21T13:55:04.451Z,23.33
2022-09-21T13:57:44.625Z,23.94
2022-09-21T14:00:13.920Z,24.16
2022-09-21T14:02:55.527Z,24.24
2022-09-21T14:05:47.069Z,24.04
2022-09-21T14:08:15.919Z,23.75
2022-09-21T14:10:54.359Z,23.83
2022-09-21T14:13:38.320Z,23.52
2022-09-21T14:16:47.933Z,23.71
2022-09-21T14:19:21.009Z,23.45
2022-09-21T14:22:04.420Z,22.98
2022-09-21T14:24:38.439Z,22.53
2022-09-21T14:27:30.691Z,22.04
2022-09-21T14:30:08.172Z,21.62
2022-09-21T14:32:47.474Z,21.55
2022-09-21T14:35:29.086Z,21.40
2022-09-21T14:38:07.912Z,20.84
2022-09-21T14:40:39.964Z,20.53
2022-09-21T14:43:13.145Z,20.27
2022-09-21T14:46:08.798Z,19.98
2022-09-21T14:48:55.083Z,19.65
2022-09-21T14:51:47.041Z,19.27
2022-09-21T14:54:59.372Z,19.22
2022-09-21T14:57:46.270Z,18.83
2022-09-21T15:00:45.424Z,18.67
2022-09-21T15:04:06.422Z,18.59
2022-09-21T15:07:05.540Z,18.23
2022-09-21T15:10:24.714Z,17.99
2022-09-21T15:13:06.294Z,17.81
2022-09-21T15:16:08.533Z,17.61
2022-09-21T15:18:43.134Z,17.48
2022-09-21T15:21:32.225Z,17.29
2022-09-21T15:24:18.662Z,17.13
2022-09-21T15:26:49.938Z,17.14
2022-09-21T15:29:24.989Z,17.02
2022-09-21T15:31:54.808Z,16.84
2022-09-21T15:34:23.832Z,16.79
2022-09-21T15:36:53.370Z,16.64
2022-09-21T15:39:29.546Z,16.64
2022-09-21T15:42:20.171Z,16.52
2022-09-21T15:44:50.908Z,16.35
2022-09-21T15:47:22.345Z,16.11
2022-09-21T15:49:52.057Z,16.07
2022-09-21T15:52:31.806Z,15.98
2022-09-21T15:55:07.446Z,15.89
2022-09-21T15:57:41.657Z,15.88
2022-09-21T16:00:16.127Z,15.81
2022-09-21T16:03:07.854Z,15.64
2022-09-21T16:05:47.183Z,15.56
2022-09-21T16:08:29.171Z,15.42
2022-09-21T16:11:27.196Z,15.27
2022-09-21T16:14:21.191Z,15.19
2022-09-21T16:17:08.854Z,15.02
2022-09-21T16:19:43.142Z,14.96
2022-09-21T16:22:24.198Z,14.87
2022-09-21T16:24:55.571Z,14.75
2022-09-21T16:27:27.635Z,14.75
2022-09-21T16:30:06.511Z,14.65
2022-09-21T16:32:35.757Z,14.59
2022-09-21T16:35:40.558Z,14.59
2022-09-21T16:38:15.728Z,14.61
2022-09-21T16:40:47.051Z,14.78
2022-09-21T16:43:17.927Z,14.97
2022-09-21T16:45:46.493Z,14.81
2022-09-21T16:48:15.547Z,14.83
2022-09-21T16:50:46.373Z,14.74
2022-09-21T16:53:14.917Z,14.72
2022-09-21T16:55:43.948Z,14.73
2022-09-21T16:58:13.175Z,14.64
2022-09-21T17:00:47.664Z,14.60
2022-09-21T17:03:17.032Z,14.57
2022-09-21T17:05:45.674Z,14.52
2022-09-21T17:08:17.872Z,14.41
2022-09-21T17:11:04.815Z,14.39
2022-09-21T17:13:55.238Z,14.33
2022-09-21T17:16:38.402Z,14.34
2022-09-21T17:19:08.255Z,14.35
2022-09-21T17:21:37.371Z,14.41
2022-09-21T17:24:07.863Z,14.31
2022-09-21T17:26:38.684Z,14.25
2022-09-21T17:29:23.252Z,14.18
2022-09-21T17:31:55.708Z,14.13
2022-09-21T17:34:27.245Z,14.16
2022-09-21T17:36:56.521Z,14.07
2022-09-21T17:39:24.644Z,14.00
2022-09-21T17:42:08.771Z,14.05
2022-09-21T17:45:13.022Z,13.97
2022-09-21T17:47:42.036Z,14.06
2022-09-21T17:50:13.051Z,13.94
2022-09-21T17:53:04.258Z,13.81
2022-09-21T17:55:32.436Z,13.70
2022-09-21T17:58:14.568Z,13.70
2022-09-21T18:01:10.155Z,13.64
2022-09-21T18:03:42.071Z,13.59
2022-09-21T18:06:12.246Z,13.57
2022-09-21T18:08:40.766Z,13.59
2022-09-21T18:11:25.124Z,13.55
2022-09-21T18:14:33.578Z,13.45
2022-09-21T18:17:22.662Z,13.45
2022-09-21T18:20:26.478Z,13.33
2022-09-21T18:23:04.322Z,13.45
2022-09-21T18:25:49.358Z,13.34
2022-09-21T18:28:24.419Z,13.33
2022-09-21T18:31:03.594Z,13.27
2022-09-21T18:33:49.482Z,13.27
2022-09-21T18:36:40.468Z,13.24
2022-09-21T18:39:14.855Z,13.16
2022-09-21T18:41:58.800Z,13.10
2022-09-21T18:44:42.870Z,13.11
2022-09-21T18:47:23.378Z,13.04
2022-09-21T18:50:08.708Z,13.03
2022-09-21T18:52:55.609Z,13.04
2022-09-21T18:55:31.594Z,12.97
2022-09-21T18:58:01.166Z,12.99
2022-09-21T19:00:34.847Z,13.04
2022-09-21T19:03:17.781Z,12.95
2022-09-21T19:06:26.682Z,12.86
2022-09-21T19:09:13.951Z,12.76
2022-09-21T19:11:53.798Z,12.74
2022-09-21T19:14:43.676Z,12.68
2022-09-21T19:17:45.321Z,12.69
2022-09-21T19:20:30.001Z,12.60
2022-09-21T19:23:19.110Z,12.54
2022-09-21T19:25:53.717Z,12.43
2022-09-21T19:28:37.284Z,12.45
2022-09-21T19:31:13.461Z,12.44
2022-09-21T19:33:50.463Z,12.37
2022-09-21T19:36:19.752Z,12.34
2022-09-21T19:38:48.375Z,12.30
2022-09-21T19:41:29.662Z,12.32
2022-09-21T19:44:15.542Z,12.25
2022-09-21T19:47:01.324Z,12.26
2022-09-21T19:49:43.178Z,12.28
2022-09-21T19:52:17.693Z,12.27
2022-09-21T19:55:04.871Z,12.26
2022-09-21T19:57:53.191Z,12.26
2022-09-21T20:00:21.654Z,12.18
2022-09-21T20:02:53.859Z,12.21
2022-09-21T20:05:32.387Z,12.21
2022-09-21T20:08:11.407Z,12.22
2022-09-21T20:10:49.240Z,12.29
2022-09-21T20:13:32.338Z,12.24
2022-09-21T20:16:30.728Z,12.39
2022-09-21T20:19:36.777Z,12.35
2022-09-21T20:22:16.797Z,12.28
2022-09-21T20:24:46.554Z,12.20
2022-09-21T20:27:35.369Z,12.19
2022-09-21T20:30:06.032Z,12.10
2022-09-21T20:32:36.064Z,12.02
2022-09-21T20:35:16.296Z,12.01
2022-09-21T20:37:44.531Z,12.10
2022-09-21T20:40:13.499Z,11.98
2022-09-21T20:42:42.137Z,11.96
2022-09-21T20:45:11.739Z,11.98
2022-09-21T20:47:43.278Z,11.82
2022-09-21T20:50:13.496Z,11.79
2022-09-21T20:52:45.334Z,11.79
2022-09-21T20:55:21.100Z,11.76
2022-09-21T20:57:48.758Z,11.64
2022-09-21T21:00:18.421Z,11.70
2022-09-21T21:02:46.013Z,11.57
2022-09-21T21:05:13.785Z,11.53
2022-09-21T21:07:43.002Z,11.59
2022-09-21T21:10:14.639Z,11.52
2022-09-21T21:12:42.740Z,11.51
2022-09-21T21:15:12.702Z,11.43
2022-09-21T21:17:42.214Z,11.44
2022-09-21T21:20:10.942Z,11.47
2022-09-21T21:22:38.490Z,11.47
2022-09-21T21:25:06.323Z,11.49
2022-09-21T21:27:36.325Z,11.47
2022-09-21T21:30:04.291Z,11.49
2022-09-21T21:32:33.286Z,11.51
2022-09-21T21:35:02.091Z,11.43
2022-09-21T21:37:31.505Z,11.32
2022-09-21T21:39:59.097Z,11.34
2022-09-21T21:42:29.211Z,11.33
2022-09-21T21:44:58.606Z,11.25
2022-09-21T21:47:42.042Z,11.25
2022-09-21T21:50:11.892Z,11.22
2022-09-21T21:52:40.864Z,11.24
2022-09-21T21:55:10.368Z,11.13
2022-09-21T21:57:38.760Z,11.12
2022-09-21T22:00:08.730Z,11.15
2022-09-21T22:02:37.940Z,11.09
2022-09-21T22:05:06.192Z,11.06
2022-09-21T22:07:35.998Z,10.91
2022-09-21T22:10:03.812Z,10.95
2022-09-21T22:12:31.934Z,10.96
2022-09-21T22:15:00.291Z,10.99
2022-09-21T22:17:28.494Z,11.02
2022-09-21T22:19:56.501Z,10.96
2022-09-21T22:22:24.357Z,10.94
2022-09-21T22:24:52.184Z,10.94
2022-09-21T22:27:19.836Z,11.04
2022-09-21T22:29:47.364Z,11.04
2022-09-21T22:32:15.084Z,11.05
2022-09-21T22:34:42.912Z,11.02
2022-09-21T22:37:11.328Z,10.97
2022-09-21T22:39:39.214Z,11.06
2022-09-21T22:42:07.523Z,11.05
2022-09-21T22:44:36.107Z,10.95
2022-09-21T22:47:03.893Z,10.92
2022-09-21T22:49:31.850Z,10.88
2022-09-21T22:51:59.378Z,10.89
2022-09-21T22:54:27.941Z,10.90
2022-09-21T22:56:55.368Z,10.85
2022-09-21T22:59:22.980Z,10.81
2022-09-21T23:01:50.631Z,10.89
2022-09-21T23:04:18.404Z,10.86
2022-09-21T23:06:49.738Z,10.86
2022-09-21T23:09:20.036Z,10.83
2022-09-21T23:11:53.838Z,10.73
2022-09-21T23:14:23.245Z,10.70
2022-09-21T23:16:51.340Z,10.63
2022-09-21T23:19:19.138Z,10.64
2022-09-21T23:21:51.703Z,10.76
2022-09-21T23:24:20.260Z,10.83
2022-09-21T23:26:50.617Z,10.83
2022-09-21T23:29:18.374Z,10.79
2022-09-21T23:31:46.582Z,10.75
2022-09-21T23:34:15.278Z,10.67
2022-09-21T23:36:44.459Z,10.60
2022-09-21T23:39:14.187Z,10.61
2022-09-21T23:41:42.475Z,10.69
2022-09-21T23:44:11.102Z,10.63
2022-09-21T23:46:40.152Z,10.59
2022-09-21T23:49:08.302Z,10.45
2022-09-21T23:51:36.602Z,10.35
2022-09-21T23:54:04.652Z,10.32
2022-09-21T23:56:33.528Z,10.20
2022-09-21T23:59:01.170Z,10.19
